createdAt,value
2023-03-20T00:02:25.713Z,7.37
2023-03-20T00:04:55.876Z,6.10
2023-03-20T00:07:25.191Z,4.87
2023-03-20T00:09:55.192Z,5.90
2023-03-20T00:12:26.642Z,5.27
2023-03-20T00:14:56.605Z,5.70
2023-03-20T00:17:26.776Z,5.77
2023-03-20T00:19:54.809Z,5.53
2023-03-20T00:22:22.920Z,5.63
2023-03-20T00:24:50.956Z,5.43
2023-03-20T00:27:19.088Z,5.80
2023-03-20T00:29:46.229Z,5.93
2023-03-20T00:32:15.184Z,5.50
2023-03-20T00:34:43.470Z,5.83
2023-03-20T00:37:13.681Z,5.93
2023-03-20T00:39:43.901Z,6.20
2023-03-20T00:42:20.227Z,5.57
2023-03-20T00:44:54.770Z,5.77
2023-03-20T00:47:37.848Z,5.43
2023-03-20T00:50:14.183Z,5.30
2023-03-20T00:52:41.176Z,6.07
2023-03-20T00:55:14.307Z,6.30
2023-03-20T00:57:55.333Z,6.47
2023-03-20T01:00:42.052Z,6.00
2023-03-20T01:03:23.865Z,6.30
2023-03-20T01:05:51.705Z,6.30
2023-03-20T01:08:24.138Z,6.77
2023-03-20T01:10:55.323Z,6.77
2023-03-20T01:13:30.546Z,6.50
2023-03-20T01:15:58.538Z,6.97
2023-03-20T01:18:26.866Z,7.03
2023-03-20T01:20:56.912Z,6.77
2023-03-20T01:23:26.898Z,6.60
2023-03-20T01:25:57.449Z,5.90
2023-03-20T01:28:29.199Z,6.47
2023-03-20T01:31:00.433Z,7.20
2023-03-20T01:33:31.011Z,6.60
2023-03-20T01:35:59.547Z,6.40
2023-03-20T01:38:28.455Z,7.13
2023-03-20T01:41:06.861Z,6.50
2023-03-20T01:43:37.005Z,6.60
2023-03-20T01:46:18.926Z,7.13
2023-03-20T01:49:21.269Z,7.27
2023-03-20T01:51:49.774Z,6.70
2023-03-20T01:54:33.024Z,7.27
2023-03-20T01:57:08.632Z,7.60
2023-03-20T01:59:42.580Z,7.57
2023-03-20T02:02:14.804Z,7.43
2023-03-20T02:04:46.360Z,7.67
2023-03-20T02:07:16.481Z,7.70
2023-03-20T02:09:43.502Z,6.93
2023-03-20T02:12:13.594Z,7.70
2023-03-20T02:14:47.094Z,7.13
2023-03-20T02:17:15.764Z,7.23
2023-03-20T02:20:01.359Z,6.80
2023-03-20T02:22:29.304Z,6.87
2023-03-20T02:25:26.326Z,7.13
2023-03-20T02:28:27.525Z,7.17
2023-03-20T02:31:35.832Z,6.70
2023-03-20T02:34:34.105Z,6.70
2023-03-20T02:37:26.228Z,6.47
2023-03-20T02:39:58.991Z,6.60
2023-03-20T02:42:49.180Z,7.03
2023-03-20T02:45:29.959Z,6.73
2023-03-20T02:48:27.824Z,7.30
2023-03-20T02:51:08.436Z,6.40
2023-03-20T02:53:44.372Z,6.20
2023-03-20T02:56:23.690Z,6.67
2023-03-20T02:58:59.665Z,6.97
2023-03-20T03:01:55.688Z,7.13
2023-03-20T03:04:30.325Z,5.87
2023-03-20T03:06:59.362Z,6.07
2023-03-20T03:09:33.752Z,5.90
2023-03-20T03:12:12.938Z,6.27
2023-03-20T03:15:02.104Z,5.87
2023-03-20T03:17:34.420Z,5.70
2023-03-20T03:20:09.656Z,7.07
2023-03-20T03:22:37.751Z,5.70
2023-03-20T03:25:06.696Z,5.47
2023-03-20T03:27:44.116Z,5.70
2023-03-20T03:30:23.879Z,5.60
2023-03-20T03:33:11.840Z,6.27
2023-03-20T03:35:41.975Z,6.47
2023-03-20T03:38:27.783Z,5.93
2023-03-20T03:41:09.313Z,5.67
2023-03-20T03:44:01.002Z,5.83
2023-03-20T03:46:44.894Z,7.07
2023-03-20T03:49:17.416Z,6.33
2023-03-20T03:51:49.616Z,5.73
2023-03-20T03:54:32.427Z,6.07
2023-03-20T03:57:03.671Z,7.13
2023-03-20T03:59:43.879Z,5.30
2023-03-20T04:02:13.814Z,6.27
2023-03-20T04:04:46.743Z,5.93
2023-03-20T04:07:15.639Z,6.17
2023-03-20T04:09:43.676Z,6.57
2023-03-20T04:12:39.754Z,5.77
2023-03-20T04:15:07.596Z,6.57
2023-03-20T04:17:37.753Z,5.77
2023-03-20T04:20:08.339Z,5.70
2023-03-20T04:22:38.550Z,6.80
2023-03-20T04:25:07.047Z,5.97
2023-03-20T04:27:34.065Z,6.10
2023-03-20T04:30:01.058Z,5.50
2023-03-20T04:32:29.012Z,6.13
2023-03-20T04:34:59.224Z,6.00
2023-03-20T04:37:40.613Z,5.33
2023-03-20T04:40:08.286Z,6.07
2023-03-20T04:42:36.244Z,5.87
2023-03-20T04:45:03.356Z,6.00
2023-03-20T04:47:30.355Z,6.50
2023-03-20T04:49:57.357Z,5.77
2023-03-20T04:52:24.583Z,5.57
2023-03-20T04:54:51.654Z,5.83
2023-03-20T04:57:18.700Z,5.03
2023-03-20T04:59:46.705Z,5.23
2023-03-20T05:02:17.958Z,5.43
2023-03-20T05:05:04.687Z,4.73
2023-03-20T05:07:34.869Z,5.90
2023-03-20T05:10:19.757Z,5.20
2023-03-20T05:12:48.031Z,5.43
2023-03-20T05:15:18.224Z,4.63
2023-03-20T05:17:46.575Z,5.57
2023-03-20T05:20:13.919Z,5.20
2023-03-20T05:22:42.946Z,5.37
2023-03-20T05:25:16.082Z,4.83
2023-03-20T05:27:46.212Z,5.30
2023-03-20T05:30:25.491Z,4.67
2023-03-20T05:32:56.342Z,4.70
2023-03-20T05:35:23.459Z,4.07
2023-03-20T05:37:50.544Z,4.33
2023-03-20T05:40:19.414Z,4.67
2023-03-20T05:42:49.417Z,5.20
2023-03-20T05:45:16.605Z,5.40
2023-03-20T05:47:43.650Z,5.20
2023-03-20T05:50:12.002Z,5.53
2023-03-20T05:52:42.143Z,5.00
2023-03-20T05:55:10.136Z,5.93
2023-03-20T05:57:40.390Z,5.53
2023-03-20T06:00:10.559Z,5.00
2023-03-20T06:02:39.579Z,5.97
2023-03-20T06:05:06.753Z,5.53
2023-03-20T06:07:34.793Z,5.37
2023-03-20T06:10:04.111Z,5.87
2023-03-20T06:12:33.212Z,5.90
2023-03-20T06:15:03.408Z,6.20
2023-03-20T06:17:30.578Z,5.67
2023-03-20T06:19:59.697Z,5.77
2023-03-20T06:22:26.758Z,5.30
2023-03-20T06:24:57.431Z,6.03
2023-03-20T06:27:24.893Z,6.60
2023-03-20T06:29:51.857Z,5.23
2023-03-20T06:32:22.582Z,6.00
2023-03-20T06:34:52.674Z,5.67
2023-03-20T06:37:20.832Z,5.33
2023-03-20T06:39:48.846Z,6.37
2023-03-20T06:42:19.590Z,5.27
2023-03-20T06:44:49.792Z,5.67
2023-03-20T06:47:16.939Z,6.50
2023-03-20T06:49:46.006Z,5.60
2023-03-20T06:52:20.366Z,6.23
2023-03-20T06:54:51.371Z,6.03
2023-03-20T06:57:21.551Z,5.97
2023-03-20T06:59:51.686Z,5.67
2023-03-20T07:02:22.187Z,5.90
2023-03-20T07:04:51.437Z,5.20
2023-03-20T07:07:21.800Z,5.70
2023-03-20T07:09:50.353Z,5.23
2023-03-20T07:12:20.511Z,6.00
2023-03-20T07:14:50.624Z,5.20
2023-03-20T07:17:17.715Z,5.70
2023-03-20T07:19:45.020Z,5.47
2023-03-20T07:22:22.824Z,5.17
2023-03-20T07:24:52.202Z,5.63
2023-03-20T07:27:22.355Z,5.37
2023-03-20T07:29:52.477Z,5.87
2023-03-20T07:32:21.462Z,5.60
2023-03-20T07:34:50.217Z,5.60
2023-03-20T07:37:18.590Z,4.70
2023-03-20T07:39:47.517Z,5.80
2023-03-20T07:42:16.712Z,5.23
2023-03-20T07:44:45.806Z,6.10
2023-03-20T07:47:16.037Z,5.03
2023-03-20T07:49:43.006Z,5.50
2023-03-20T07:52:13.253Z,5.53
2023-03-20T07:54:43.397Z,5.13
2023-03-20T07:57:12.656Z,5.70
2023-03-20T07:59:41.991Z,5.37
2023-03-20T08:02:16.882Z,5.20
2023-03-20T08:04:45.385Z,5.00
2023-03-20T08:07:15.862Z,4.73
2023-03-20T08:09:46.145Z,4.93
2023-03-20T08:12:13.226Z,4.90
2023-03-20T08:14:44.363Z,4.73
2023-03-20T08:17:15.484Z,5.47
2023-03-20T08:19:44.843Z,4.60
2023-03-20T08:22:14.960Z,4.83
2023-03-20T08:24:42.963Z,4.80
2023-03-20T08:27:13.129Z,4.23
2023-03-20T08:29:41.410Z,4.33
2023-03-20T08:32:09.810Z,4.60
2023-03-20T08:34:36.890Z,4.23
2023-03-20T08:37:05.780Z,4.23
2023-03-20T08:39:36.397Z,4.77
2023-03-20T08:42:04.523Z,4.83
2023-03-20T08:44:31.730Z,4.73
2023-03-20T08:46:59.115Z,4.53
2023-03-20T08:49:26.316Z,4.63
2023-03-20T08:51:54.277Z,4.93
2023-03-20T08:54:23.995Z,4.60
2023-03-20T08:56:51.197Z,4.43
2023-03-20T08:59:24.217Z,4.60
2023-03-20T09:01:54.338Z,5.00
2023-03-20T09:04:21.428Z,5.30
2023-03-20T09:06:49.475Z,5.43
2023-03-20T09:09:21.776Z,4.27
2023-03-20T09:11:50.745Z,4.97
2023-03-20T09:14:18.734Z,5.10
2023-03-20T09:16:47.341Z,4.73
2023-03-20T09:19:26.596Z,5.43
2023-03-20T09:21:56.732Z,4.90
2023-03-20T09:24:25.866Z,5.93
2023-03-20T09:26:55.017Z,4.70
2023-03-20T09:29:25.236Z,4.40
2023-03-20T09:31:58.260Z,5.03
2023-03-20T09:34:29.607Z,5.20
2023-03-20T09:36:57.593Z,5.07
2023-03-20T09:39:24.956Z,4.90
2023-03-20T09:41:57.504Z,6.50
2023-03-20T09:44:40.465Z,6.10
2023-03-20T09:47:21.148Z,33.17
2023-03-20T09:50:22.395Z,6.70
2023-03-20T09:52:57.845Z,12.60
2023-03-20T09:55:36.083Z,5.07
2023-03-20T09:58:15.162Z,5.77
2023-03-20T10:00:48.365Z,6.77
2023-03-20T10:04:12.088Z,6.17
2023-03-20T10:06:39.146Z,5.87
2023-03-20T10:09:25.726Z,5.53
2023-03-20T10:12:14.041Z,5.20
2023-03-20T10:15:11.783Z,5.90
2023-03-20T10:17:40.727Z,5.50
2023-03-20T10:20:43.142Z,6.07
2023-03-20T10:23:37.358Z,5.47
2023-03-20T10:26:10.871Z,6.47
2023-03-20T10:28:50.822Z,6.03
2023-03-20T10:31:30.025Z,5.77
2023-03-20T10:34:46.739Z,6.23
2023-03-20T10:37:32.522Z,5.93
2023-03-20T10:40:21.664Z,6.80
2023-03-20T10:42:52.717Z,7.20
2023-03-20T10:45:36.845Z,6.50
2023-03-20T10:48:16.078Z,6.33
2023-03-20T10:50:52.664Z,6.83
2023-03-20T10:53:30.579Z,6.20
2023-03-20T10:56:11.957Z,5.73
2023-03-20T10:58:50.495Z,6.57
2023-03-20T11:01:20.761Z,5.97
2023-03-20T11:03:47.728Z,6.57
2023-03-20T11:06:26.763Z,6.33
2023-03-20T11:08:55.030Z,6.30
2023-03-20T11:11:34.785Z,7.73
2023-03-20T11:14:24.345Z,7.10
2023-03-20T11:16:57.610Z,6.97
2023-03-20T11:19:26.033Z,6.10
2023-03-20T11:21:58.794Z,5.90
2023-03-20T11:24:41.448Z,6.80
2023-03-20T11:27:14.604Z,6.20
2023-03-20T11:29:49.663Z,7.10
2023-03-20T11:32:31.256Z,5.70
2023-03-20T11:35:17.497Z,6.47
2023-03-20T11:37:51.139Z,5.83
2023-03-20T11:40:33.667Z,5.67
2023-03-20T11:43:01.708Z,6.43
2023-03-20T11:45:38.133Z,5.53
2023-03-20T11:48:07.034Z,6.40
2023-03-20T11:50:42.593Z,6.00
2023-03-20T11:53:37.135Z,6.10
2023-03-20T11:56:06.807Z,5.73
2023-03-20T11:58:38.960Z,6.30
2023-03-20T12:01:12.925Z,5.93
2023-03-20T12:03:52.198Z,5.70
2023-03-20T12:06:27.647Z,5.23
2023-03-20T12:09:09.553Z,5.10
2023-03-20T12:11:52.730Z,5.93
2023-03-20T12:14:25.927Z,4.97
2023-03-20T12:17:06.233Z,4.70
2023-03-20T12:19:40.801Z,5.17
2023-03-20T12:22:49.649Z,4.30
2023-03-20T12:25:24.747Z,4.20
2023-03-20T12:28:13.701Z,5.13
2023-03-20T12:30:47.391Z,3.50
2023-03-20T12:33:26.529Z,4.03
2023-03-20T12:35:54.714Z,4.00
2023-03-20T12:38:32.850Z,3.40
2023-03-20T12:41:21.885Z,3.40
2023-03-20T12:44:31.248Z,3.63
2023-03-20T12:47:17.909Z,3.67
2023-03-20T12:50:01.865Z,3.30
2023-03-20T12:53:02.043Z,3.50
2023-03-20T12:56:06.674Z,3.43
2023-03-20T12:58:41.595Z,3.00
2023-03-20T13:01:22.061Z,3.73
2023-03-20T13:04:18.135Z,2.60
2023-03-20T13:06:53.501Z,2.20
2023-03-20T13:09:49.554Z,2.50
2023-03-20T13:12:41.748Z,2.03
2023-03-20T13:15:27.712Z,2.20
2023-03-20T13:18:16.692Z,1.73
2023-03-20T13:20:55.401Z,1.90
2023-03-20T13:23:41.336Z,2.00
2023-03-20T13:26:39.001Z,2.13
2023-03-20T13:29:28.485Z,1.50
2023-03-20T13:32:28.491Z,2.40
2023-03-20T13:35:32.154Z,2.03
2023-03-20T13:38:14.836Z,2.33
2023-03-20T13:40:46.708Z,2.37
2023-03-20T13:43:34.666Z,2.00
2023-03-20T13:46:10.379Z,2.13
2023-03-20T13:48:41.101Z,2.17
2023-03-20T13:51:28.328Z,1.60
2023-03-20T13:54:13.267Z,2.10
2023-03-20T13:56:49.159Z,1.83
2023-03-20T13:59:35.813Z,2.77
2023-03-20T14:02:28.197Z,1.90
2023-03-20T14:05:16.717Z,3.03
2023-03-20T14:07:45.369Z,2.07
2023-03-20T14:10:21.569Z,2.50
2023-03-20T14:13:14.130Z,2.30
2023-03-20T14:15:56.408Z,2.17
2023-03-20T14:18:26.734Z,3.00
2023-03-20T14:21:01.223Z,2.33
2023-03-20T14:23:44.790Z,2.20
2023-03-20T14:26:19.657Z,3.00
2023-03-20T14:28:58.957Z,2.20
2023-03-20T14:31:37.872Z,2.13
2023-03-20T14:34:12.742Z,1.67
2023-03-20T14:37:03.844Z,1.60
2023-03-20T14:39:48.968Z,1.90
2023-03-20T14:42:24.446Z,2.00
2023-03-20T14:45:13.881Z,1.70
2023-03-20T14:47:59.587Z,1.40
2023-03-20T14:50:41.570Z,1.83
2023-03-20T14:53:24.509Z,1.87
2023-03-20T14:56:08.786Z,1.87
2023-03-20T14:58:58.033Z,1.90
2023-03-20T15:01:40.875Z,1.87
2023-03-20T15:04:29.502Z,1.83
2023-03-20T15:07:10.953Z,2.00
2023-03-20T15:09:41.412Z,2.00
2023-03-20T15:12:12.178Z,2.47
2023-03-20T15:14:55.426Z,2.40
2023-03-20T15:17:27.277Z,2.57
2023-03-20T15:20:19.370Z,2.47
2023-03-20T15:22:53.006Z,2.80
2023-03-20T15:25:44.485Z,3.17
2023-03-20T15:28:25.004Z,2.50
2023-03-20T15:30:58.665Z,3.03
2023-03-20T15:33:31.494Z,2.90
2023-03-20T15:36:09.809Z,2.63
2023-03-20T15:38:38.481Z,2.63
2023-03-20T15:41:23.580Z,2.80
2023-03-20T15:43:50.896Z,2.50
2023-03-20T15:46:19.283Z,2.67
2023-03-20T15:48:50.523Z,2.47
2023-03-20T15:51:21.580Z,2.97
2023-03-20T15:53:49.330Z,2.47
2023-03-20T15:56:19.961Z,2.40
2023-03-20T15:58:55.200Z,1.83
2023-03-20T16:01:25.900Z,1.83
2023-03-20T16:03:59.580Z,2.00
2023-03-20T16:06:29.834Z,1.60
2023-03-20T16:09:06.100Z,2.53
2023-03-20T16:11:44.647Z,1.80
2023-03-20T16:14:25.772Z,1.53
2023-03-20T16:16:55.521Z,1.77
2023-03-20T16:19:29.557Z,2.73
2023-03-20T16:22:00.494Z,1.80
2023-03-20T16:24:36.743Z,1.87
2023-03-20T16:27:08.647Z,2.03
2023-03-20T16:29:42.987Z,2.10
2023-03-20T16:32:32.557Z,2.30
2023-03-20T16:35:02.841Z,3.17
2023-03-20T16:37:37.688Z,2.50
2023-03-20T16:40:32.033Z,3.17
2023-03-20T16:43:24.006Z,2.97
2023-03-20T16:45:57.235Z,3.10
2023-03-20T16:48:34.555Z,2.80
2023-03-20T16:51:20.523Z,3.17
2023-03-20T16:53:55.270Z,3.73
2023-03-20T16:56:29.883Z,3.10
2023-03-20T16:58:57.380Z,3.10
2023-03-20T17:01:28.335Z,2.97
2023-03-20T17:03:58.247Z,3.77
2023-03-20T17:06:36.116Z,3.67
2023-03-20T17:09:25.471Z,3.47
2023-03-20T17:12:04.742Z,3.60
2023-03-20T17:14:32.470Z,4.50
2023-03-20T17:17:00.485Z,3.60
2023-03-20T17:19:27.831Z,3.83
2023-03-20T17:21:55.031Z,4.30
2023-03-20T17:24:23.174Z,4.70
2023-03-20T17:26:58.563Z,5.03
2023-03-20T17:29:26.657Z,4.83
2023-03-20T17:31:53.885Z,4.30
2023-03-20T17:34:24.168Z,3.83
2023-03-20T17:36:54.432Z,4.10
2023-03-20T17:39:22.577Z,4.30
2023-03-20T17:41:49.884Z,4.13
2023-03-20T17:44:16.894Z,3.97
2023-03-20T17:46:57.174Z,3.77
2023-03-20T17:49:27.790Z,3.70
2023-03-20T17:51:56.006Z,3.93
2023-03-20T17:54:24.206Z,4.80
2023-03-20T17:56:52.320Z,4.30
2023-03-20T17:59:22.580Z,4.60
2023-03-20T18:01:49.896Z,4.53
2023-03-20T18:04:19.936Z,4.03
2023-03-20T18:06:47.915Z,3.90
2023-03-20T18:09:19.209Z,4.00
2023-03-20T18:11:46.463Z,4.53
2023-03-20T18:14:18.226Z,3.50
2023-03-20T18:16:47.777Z,4.17
2023-03-20T18:19:25.807Z,4.67
2023-03-20T18:21:53.286Z,4.10
2023-03-20T18:24:20.700Z,3.60
2023-03-20T18:26:48.040Z,3.90
2023-03-20T18:29:15.816Z,4.00
2023-03-20T18:31:44.006Z,4.00
2023-03-20T18:34:11.294Z,4.80
2023-03-20T18:36:41.457Z,4.83
2023-03-20T18:39:17.655Z,4.80
2023-03-20T18:41:45.771Z,5.10
2023-03-20T18:44:13.247Z,3.70
2023-03-20T18:46:43.886Z,4.43
2023-03-20T18:49:16.744Z,3.70
2023-03-20T18:51:50.094Z,4.07
2023-03-20T18:54:17.172Z,3.70
2023-03-20T18:56:49.913Z,3.93
2023-03-20T18:59:19.977Z,3.63
2023-03-20T19:01:49.434Z,4.03
2023-03-20T19:04:19.723Z,4.13
2023-03-20T19:06:49.658Z,4.50
2023-03-20T19:09:18.451Z,4.60
2023-03-20T19:11:45.614Z,4.73
2023-03-20T19:14:14.340Z,4.30
2023-03-20T19:16:42.602Z,4.80
2023-03-20T19:19:15.487Z,5.30
2023-03-20T19:21:42.725Z,4.90
2023-03-20T19:24:10.735Z,4.70
2023-03-20T19:26:41.380Z,5.63
2023-03-20T19:29:14.043Z,5.47
2023-03-20T19:31:42.203Z,5.37
2023-03-20T19:34:28.102Z,5.10
2023-03-20T19:36:57.597Z,5.17
2023-03-20T19:39:24.740Z,5.50
2023-03-20T19:41:52.805Z,4.90
2023-03-20T19:44:21.955Z,5.20
2023-03-20T19:46:52.925Z,5.17
2023-03-20T19:49:30.412Z,5.30
2023-03-20T19:51:57.594Z,5.20
2023-03-20T19:54:25.879Z,5.30
2023-03-20T19:56:52.928Z,5.23
2023-03-20T19:59:21.278Z,5.47
2023-03-20T20:01:50.965Z,4.60
2023-03-20T20:04:20.261Z,3.93
2023-03-20T20:06:55.290Z,4.50
2023-03-20T20:09:26.736Z,4.87
2023-03-20T20:11:58.448Z,4.67
2023-03-20T20:14:25.705Z,4.63
2023-03-20T20:16:53.992Z,4.23
2023-03-20T20:19:22.075Z,4.20
2023-03-20T20:24:41.163Z,4.87
2023-03-20T20:27:17.834Z,4.67
2023-03-20T20:29:51.079Z,4.70
2023-03-20T20:32:23.375Z,5.00
2023-03-20T20:35:34.943Z,5.30
2023-03-20T20:40:30.733Z,5.37
2023-03-20T20:43:02.163Z,5.27
2023-03-20T20:45:31.649Z,5.10
2023-03-20T20:47:59.626Z,4.87
2023-03-20T20:50:31.428Z,5.90
2023-03-20T20:53:01.706Z,5.73
2023-03-20T20:55:29.789Z,5.73
2023-03-20T20:57:57.470Z,5.80
2023-03-20T21:00:41.334Z,4.90
2023-03-20T21:03:16.137Z,5.07
2023-03-20T21:05:45.453Z,5.50
2023-03-20T21:08:14.519Z,6.07
2023-03-20T21:10:45.209Z,4.80
2023-03-20T21:13:12.320Z,5.03
2023-03-20T21:15:39.830Z,5.43
2023-03-20T21:18:08.404Z,5.70
2023-03-20T21:20:38.575Z,5.10
2023-03-20T21:23:11.866Z,5.20
2023-03-20T21:25:45.456Z,5.17
2023-03-20T21:28:15.404Z,4.97
2023-03-20T21:31:05.977Z,5.60
2023-03-20T21:33:36.954Z,5.07
2023-03-20T21:36:07.116Z,5.20
2023-03-20T21:41:21.740Z,5.60
2023-03-20T21:43:49.844Z,5.90
2023-03-20T21:58:10.292Z,6.07
2023-03-20T22:03:11.834Z,6.63
2023-03-20T22:09:35.642Z,6.90
2023-03-20T22:12:09.609Z,6.97
2023-03-20T22:14:58.933Z,7.10
2023-03-20T22:26:04.128Z,7.03
2023-03-20T22:37:46.306Z,7.23
2023-03-20T22:45:18.687Z,7.30
2023-03-20T22:47:46.778Z,7.43
2023-03-20T22:50:14.137Z,7.00
2023-03-20T22:52:49.483Z,7.00
2023-03-20T22:55:19.850Z,7.23
2023-03-20T22:57:59.937Z,7.03
2023-03-20T23:00:35.163Z,7.00
2023-03-20T23:03:37.788Z,7.77
2023-03-20T23:05:54.057Z,7.17
2023-03-20T23:08:24.827Z,7.40
2023-03-20T23:10:58.813Z,7.30
2023-03-20T23:13:27.125Z,6.80
2023-03-20T23:15:57.212Z,6.87
2023-03-20T23:18:27.252Z,6.97
2023-03-20T23:20:58.587Z,7.17
2023-03-20T23:23:29.074Z,7.20
2023-03-20T23:26:10.055Z,6.93
2023-03-20T23:28:48.506Z,6.60
2023-03-20T23:31:21.517Z,5.90
2023-03-20T23:33:57.242Z,6.37
2023-03-20T23:36:42.886Z,7.90
2023-03-20T23:39:13.069Z,7.00
2023-03-20T23:42:07.852Z,7.10
2023-03-20T23:44:35.049Z,6.83
2023-03-20T23:47:19.646Z,6.73
2023-03-20T23:49:47.887Z,7.43
2023-03-20T23:52:17.946Z,7.10
2023-03-20T23:54:48.091Z,6.83
2023-03-20T23:57:18.181Z,8.43
2023-03-20T23:59:46.134Z,6.80
